Iowana, Mississippi
Current Conditions -  °F | °C
As of 9:53 PM on Sunday 21 Dec 2014 (Local Time) from KPQL Reporting Station
Overcast Overcast  
Wind Chill: 56°   Ceiling: 700
Heat Index: 56°   Visibility: 7mi
Dew Point: 54°   Wind: 5mph
Humidity: 93%   Direction: 70°ENE
Pressure: 29.99"   Gusts: NA
Location:  30.4104°N, 88.6488°W
Report Text: KPQL 220353Z AUTO 07004KT 7SM OVC007 13/12 A2999 RMK AO2 SLP156 T01330122 TSNO
Loading
Personal Weather Stations






























Interactive Weather Map New forecast layout! Learn more

10-Day Weather Forecast

Advertisements
Track Severe Weather on mobile